sensor_id;sensor_type;location;lat;lon;timestamp;temperature;humidity
33901;DHT22;20193;49.810;6.418;2022-08-30T00:01:26;17.20;78.70
33901;DHT22;20193;49.810;6.418;2022-08-30T00:03:52;17.20;78.90
33901;DHT22;20193;49.810;6.418;2022-08-30T00:06:19;17.20;78.90
33901;DHT22;20193;49.810;6.418;2022-08-30T00:08:46;17.20;79.00
33901;DHT22;20193;49.810;6.418;2022-08-30T00:11:22;17.20;79.00
33901;DHT22;20193;49.810;6.418;2022-08-30T00:13:49;17.10;79.00
33901;DHT22;20193;49.810;6.418;2022-08-30T00:16:18;17.10;79.10
33901;DHT22;20193;49.810;6.418;2022-08-30T00:18:44;17.10;79.10
33901;DHT22;20193;49.810;6.418;2022-08-30T00:21:10;17.10;79.10
33901;DHT22;20193;49.810;6.418;2022-08-30T00:23:36;17.00;79.00
33901;DHT22;20193;49.810;6.418;2022-08-30T00:26:02;17.00;79.10
33901;DHT22;20193;49.810;6.418;2022-08-30T00:28:28;17.00;79.20
33901;DHT22;20193;49.810;6.418;2022-08-30T00:30:54;16.90;79.20
33901;DHT22;20193;49.810;6.418;2022-08-30T00:33:21;16.90;79.40
33901;DHT22;20193;49.810;6.418;2022-08-30T00:35:46;16.90;79.40
33901;DHT22;20193;49.810;6.418;2022-08-30T00:38:13;16.80;79.40
33901;DHT22;20193;49.810;6.418;2022-08-30T00:40:41;16.80;79.60
33901;DHT22;20193;49.810;6.418;2022-08-30T00:43:13;16.70;79.60
33901;DHT22;20193;49.810;6.418;2022-08-30T00:45:41;16.70;79.70
33901;DHT22;20193;49.810;6.418;2022-08-30T00:48:07;16.70;79.80
33901;DHT22;20193;49.810;6.418;2022-08-30T00:50:38;16.70;79.80
33901;DHT22;20193;49.810;6.418;2022-08-30T00:53:07;16.60;79.80
33901;DHT22;20193;49.810;6.418;2022-08-30T00:55:34;16.60;80.00
33901;DHT22;20193;49.810;6.418;2022-08-30T00:58:02;16.60;80.10
33901;DHT22;20193;49.810;6.418;2022-08-30T01:00:29;16.50;80.10
33901;DHT22;20193;49.810;6.418;2022-08-30T01:02:55;16.50;80.10
33901;DHT22;20193;49.810;6.418;2022-08-30T01:05:21;16.50;80.30
33901;DHT22;20193;49.810;6.418;2022-08-30T01:07:48;16.50;80.30
33901;DHT22;20193;49.810;6.418;2022-08-30T01:10:14;16.40;80.30
33901;DHT22;20193;49.810;6.418;2022-08-30T01:12:42;16.40;80.30
33901;DHT22;20193;49.810;6.418;2022-08-30T01:15:09;16.30;80.40
33901;DHT22;20193;49.810;6.418;2022-08-30T01:17:37;16.30;80.60
33901;DHT22;20193;49.810;6.418;2022-08-30T01:20:11;16.30;80.70
33901;DHT22;20193;49.810;6.418;2022-08-30T01:25:11;16.20;80.90
33901;DHT22;20193;49.810;6.418;2022-08-30T01:27:40;16.20;81.00
33901;DHT22;20193;49.810;6.418;2022-08-30T01:30:07;16.20;81.20
33901;DHT22;20193;49.810;6.418;2022-08-30T01:32:39;16.20;81.20
33901;DHT22;20193;49.810;6.418;2022-08-30T01:35:06;16.20;81.30
33901;DHT22;20193;49.810;6.418;2022-08-30T01:37:32;16.10;81.20
33901;DHT22;20193;49.810;6.418;2022-08-30T01:39:58;16.10;81.30
33901;DHT22;20193;49.810;6.418;2022-08-30T01:42:24;16.10;81.40
33901;DHT22;20193;49.810;6.418;2022-08-30T01:44:50;16.10;81.50
33901;DHT22;20193;49.810;6.418;2022-08-30T01:47:17;16.00;81.40
33901;DHT22;20193;49.810;6.418;2022-08-30T01:49:45;16.00;81.70
33901;DHT22;20193;49.810;6.418;2022-08-30T01:52:11;16.00;81.80
33901;DHT22;20193;49.810;6.418;2022-08-30T01:54:39;16.00;81.80
33901;DHT22;20193;49.810;6.418;2022-08-30T01:57:10;16.00;82.10
33901;DHT22;20193;49.810;6.418;2022-08-30T01:59:37;16.00;82.30
33901;DHT22;20193;49.810;6.418;2022-08-30T02:02:05;15.90;82.30
33901;DHT22;20193;49.810;6.418;2022-08-30T02:04:31;15.90;82.50
33901;DHT22;20193;49.810;6.418;2022-08-30T02:06:56;15.90;82.60
33901;DHT22;20193;49.810;6.418;2022-08-30T02:09:22;15.90;82.70
33901;DHT22;20193;49.810;6.418;2022-08-30T02:11:48;15.80;82.60
33901;DHT22;20193;49.810;6.418;2022-08-30T02:14:14;15.80;82.50
33901;DHT22;20193;49.810;6.418;2022-08-30T02:16:40;15.80;82.60
33901;DHT22;20193;49.810;6.418;2022-08-30T02:19:06;15.80;82.50
33901;DHT22;20193;49.810;6.418;2022-08-30T02:21:32;15.70;82.50
33901;DHT22;20193;49.810;6.418;2022-08-30T02:23:58;15.70;82.60
33901;DHT22;20193;49.810;6.418;2022-08-30T02:26:24;15.70;82.70
33901;DHT22;20193;49.810;6.418;2022-08-30T02:28:51;15.60;82.50
33901;DHT22;20193;49.810;6.418;2022-08-30T02:31:21;15.60;82.60
33901;DHT22;20193;49.810;6.418;2022-08-30T02:33:48;15.50;82.60
33901;DHT22;20193;49.810;6.418;2022-08-30T02:36:14;15.50;82.80
33901;DHT22;20193;49.810;6.418;2022-08-30T02:38:40;15.50;83.00
33901;DHT22;20193;49.810;6.418;2022-08-30T02:41:06;15.40;83.10
33901;DHT22;20193;49.810;6.418;2022-08-30T02:43:31;15.40;83.10
33901;DHT22;20193;49.810;6.418;2022-08-30T02:45:57;15.40;83.20
33901;DHT22;20193;49.810;6.418;2022-08-30T02:48:23;15.40;83.30
33901;DHT22;20193;49.810;6.418;2022-08-30T02:50:50;15.30;83.30
33901;DHT22;20193;49.810;6.418;2022-08-30T02:53:17;15.30;83.30
33901;DHT22;20193;49.810;6.418;2022-08-30T02:55:43;15.20;83.30
33901;DHT22;20193;49.810;6.418;2022-08-30T02:58:09;15.20;83.50
33901;DHT22;20193;49.810;6.418;2022-08-30T03:00:36;15.20;83.50
33901;DHT22;20193;49.810;6.418;2022-08-30T03:03:02;15.20;83.60
33901;DHT22;20193;49.810;6.418;2022-08-30T03:05:29;15.10;83.60
33901;DHT22;20193;49.810;6.418;2022-08-30T03:07:56;15.10;83.70
33901;DHT22;20193;49.810;6.418;2022-08-30T03:10:21;15.00;83.70
33901;DHT22;20193;49.810;6.418;2022-08-30T03:12:47;15.00;83.80
33901;DHT22;20193;49.810;6.418;2022-08-30T03:15:13;15.00;83.80
33901;DHT22;20193;49.810;6.418;2022-08-30T03:17:39;14.90;83.80
33901;DHT22;20193;49.810;6.418;2022-08-30T03:20:07;14.90;84.00
33901;DHT22;20193;49.810;6.418;2022-08-30T03:22:33;14.90;84.10
33901;DHT22;20193;49.810;6.418;2022-08-30T03:24:58;14.90;84.20
33901;DHT22;20193;49.810;6.418;2022-08-30T03:27:26;14.90;85.00
33901;DHT22;20193;49.810;6.418;2022-08-30T03:29:53;14.80;84.30
33901;DHT22;20193;49.810;6.418;2022-08-30T03:32:18;14.80;84.40
33901;DHT22;20193;49.810;6.418;2022-08-30T03:34:44;14.80;84.40
33901;DHT22;20193;49.810;6.418;2022-08-30T03:37:10;14.70;84.40
33901;DHT22;20193;49.810;6.418;2022-08-30T03:39:36;14.70;84.60
33901;DHT22;20193;49.810;6.418;2022-08-30T03:42:02;14.70;84.80
33901;DHT22;20193;49.810;6.418;2022-08-30T03:44:27;14.70;85.00
33901;DHT22;20193;49.810;6.418;2022-08-30T03:46:53;14.60;85.00
33901;DHT22;20193;49.810;6.418;2022-08-30T03:49:19;14.60;85.20
33901;DHT22;20193;49.810;6.418;2022-08-30T03:51:45;14.60;85.40
33901;DHT22;20193;49.810;6.418;2022-08-30T03:54:12;14.60;85.50
33901;DHT22;20193;49.810;6.418;2022-08-30T03:56:37;14.60;85.60
33901;DHT22;20193;49.810;6.418;2022-08-30T03:59:03;14.50;85.50
33901;DHT22;20193;49.810;6.418;2022-08-30T04:01:29;14.50;85.60
33901;DHT22;20193;49.810;6.418;2022-08-30T04:03:55;14.50;85.70
33901;DHT22;20193;49.810;6.418;2022-08-30T04:06:21;14.50;85.70
33901;DHT22;20193;49.810;6.418;2022-08-30T04:08:47;14.40;85.80
33901;DHT22;20193;49.810;6.418;2022-08-30T04:11:13;14.40;85.90
33901;DHT22;20193;49.810;6.418;2022-08-30T04:13:42;14.40;85.90
33901;DHT22;20193;49.810;6.418;2022-08-30T04:16:08;14.40;86.00
33901;DHT22;20193;49.810;6.418;2022-08-30T04:18:34;14.40;86.20
33901;DHT22;20193;49.810;6.418;2022-08-30T04:21:01;14.30;86.20
33901;DHT22;20193;49.810;6.418;2022-08-30T04:23:28;14.30;86.30
33901;DHT22;20193;49.810;6.418;2022-08-30T04:25:54;14.30;86.80
33901;DHT22;20193;49.810;6.418;2022-08-30T04:28:21;14.30;86.50
33901;DHT22;20193;49.810;6.418;2022-08-30T04:30:47;14.20;86.50
33901;DHT22;20193;49.810;6.418;2022-08-30T04:33:14;14.20;86.60
33901;DHT22;20193;49.810;6.418;2022-08-30T04:35:44;14.20;86.80
33901;DHT22;20193;49.810;6.418;2022-08-30T04:38:11;14.20;86.90
33901;DHT22;20193;49.810;6.418;2022-08-30T04:40:40;14.20;87.00
33901;DHT22;20193;49.810;6.418;2022-08-30T04:43:06;14.20;87.20
33901;DHT22;20193;49.810;6.418;2022-08-30T04:45:32;14.10;87.10
33901;DHT22;20193;49.810;6.418;2022-08-30T04:47:58;14.10;87.30
33901;DHT22;20193;49.810;6.418;2022-08-30T04:50:23;14.10;87.40
33901;DHT22;20193;49.810;6.418;2022-08-30T04:52:49;14.10;87.50
33901;DHT22;20193;49.810;6.418;2022-08-30T04:55:15;14.10;87.50
33901;DHT22;20193;49.810;6.418;2022-08-30T04:57:41;14.10;87.60
33901;DHT22;20193;49.810;6.418;2022-08-30T05:00:10;14.10;87.80
33901;DHT22;20193;49.810;6.418;2022-08-30T05:02:38;14.10;87.90
33901;DHT22;20193;49.810;6.418;2022-08-30T05:05:05;14.10;88.00
33901;DHT22;20193;49.810;6.418;2022-08-30T05:07:49;14.10;88.20
33901;DHT22;20193;49.810;6.418;2022-08-30T05:10:15;14.10;88.20
33901;DHT22;20193;49.810;6.418;2022-08-30T05:12:41;14.10;88.30
33901;DHT22;20193;49.810;6.418;2022-08-30T05:15:08;14.20;88.50
33901;DHT22;20193;49.810;6.418;2022-08-30T05:17:37;14.20;88.70
33901;DHT22;20193;49.810;6.418;2022-08-30T05:20:04;14.20;88.80
33901;DHT22;20193;49.810;6.418;2022-08-30T05:22:29;14.20;89.00
33901;DHT22;20193;49.810;6.418;2022-08-30T05:24:55;14.30;89.20
33901;DHT22;20193;49.810;6.418;2022-08-30T05:27:21;14.30;89.30
33901;DHT22;20193;49.810;6.418;2022-08-30T05:29:46;14.40;89.50
33901;DHT22;20193;49.810;6.418;2022-08-30T05:32:12;14.50;89.80
33901;DHT22;20193;49.810;6.418;2022-08-30T05:34:38;14.50;89.90
33901;DHT22;20193;49.810;6.418;2022-08-30T05:37:03;14.60;90.00
33901;DHT22;20193;49.810;6.418;2022-08-30T05:39:29;14.70;90.20
33901;DHT22;20193;49.810;6.418;2022-08-30T05:41:58;14.80;90.20
33901;DHT22;20193;49.810;6.418;2022-08-30T05:44:24;14.90;90.30
33901;DHT22;20193;49.810;6.418;2022-08-30T05:46:49;15.00;90.40
33901;DHT22;20193;49.810;6.418;2022-08-30T05:49:15;15.20;90.50
33901;DHT22;20193;49.810;6.418;2022-08-30T05:51:41;15.30;90.90
33901;DHT22;20193;49.810;6.418;2022-08-30T05:54:07;15.50;90.70
33901;DHT22;20193;49.810;6.418;2022-08-30T05:56:35;15.70;90.80
33901;DHT22;20193;49.810;6.418;2022-08-30T05:59:02;15.90;90.80
33901;DHT22;20193;49.810;6.418;2022-08-30T06:01:31;16.10;90.80
33901;DHT22;20193;49.810;6.418;2022-08-30T06:03:59;16.30;90.70
33901;DHT22;20193;49.810;6.418;2022-08-30T06:06:26;16.50;90.70
33901;DHT22;20193;49.810;6.418;2022-08-30T06:08:53;16.70;90.50
33901;DHT22;20193;49.810;6.418;2022-08-30T06:11:20;16.90;90.40
33901;DHT22;20193;49.810;6.418;2022-08-30T06:13:47;17.10;90.20
33901;DHT22;20193;49.810;6.418;2022-08-30T06:16:16;17.20;90.00
33901;DHT22;20193;49.810;6.418;2022-08-30T06:18:43;17.30;89.60
33901;DHT22;20193;49.810;6.418;2022-08-30T06:21:15;17.40;89.30
33901;DHT22;20193;49.810;6.418;2022-08-30T06:23:41;17.60;89.00
33901;DHT22;20193;49.810;6.418;2022-08-30T06:26:07;17.70;88.10
33901;DHT22;20193;49.810;6.418;2022-08-30T06:28:33;17.80;87.80
33901;DHT22;20193;49.810;6.418;2022-08-30T06:30:59;18.00;87.40
33901;DHT22;20193;49.810;6.418;2022-08-30T06:33:24;18.20;86.90
33901;DHT22;20193;49.810;6.418;2022-08-30T06:35:50;18.40;86.40
33901;DHT22;20193;49.810;6.418;2022-08-30T06:38:16;18.50;86.40
33901;DHT22;20193;49.810;6.418;2022-08-30T06:40:42;18.70;84.80
33901;DHT22;20193;49.810;6.418;2022-08-30T06:43:07;18.90;84.10
33901;DHT22;20193;49.810;6.418;2022-08-30T06:45:34;19.10;83.80
33901;DHT22;20193;49.810;6.418;2022-08-30T06:48:00;19.20;83.50
33901;DHT22;20193;49.810;6.418;2022-08-30T06:50:26;19.40;82.50
33901;DHT22;20193;49.810;6.418;2022-08-30T06:52:52;19.60;82.00
33901;DHT22;20193;49.810;6.418;2022-08-30T06:55:18;19.60;81.20
33901;DHT22;20193;49.810;6.418;2022-08-30T06:57:44;19.70;80.80
33901;DHT22;20193;49.810;6.418;2022-08-30T07:00:14;19.90;80.40
33901;DHT22;20193;49.810;6.418;2022-08-30T07:02:40;20.00;79.60
33901;DHT22;20193;49.810;6.418;2022-08-30T07:05:07;20.00;78.60
33901;DHT22;20193;49.810;6.418;2022-08-30T07:07:37;20.20;78.00
33901;DHT22;20193;49.810;6.418;2022-08-30T07:10:06;20.40;77.10
33901;DHT22;20193;49.810;6.418;2022-08-30T07:12:32;20.50;75.80
33901;DHT22;20193;49.810;6.418;2022-08-30T07:14:57;20.70;75.30
33901;DHT22;20193;49.810;6.418;2022-08-30T07:17:23;20.90;74.40
33901;DHT22;20193;49.810;6.418;2022-08-30T07:20:08;21.10;73.70
33901;DHT22;20193;49.810;6.418;2022-08-30T07:22:34;21.30;73.20
33901;DHT22;20193;49.810;6.418;2022-08-30T07:25:00;21.50;72.20
33901;DHT22;20193;49.810;6.418;2022-08-30T07:27:26;21.70;71.60
33901;DHT22;20193;49.810;6.418;2022-08-30T07:29:51;21.90;71.00
33901;DHT22;20193;49.810;6.418;2022-08-30T07:32:17;22.00;70.30
33901;DHT22;20193;49.810;6.418;2022-08-30T07:34:43;22.20;70.10
33901;DHT22;20193;49.810;6.418;2022-08-30T07:37:08;22.50;69.10
33901;DHT22;20193;49.810;6.418;2022-08-30T07:39:34;22.70;67.90
33901;DHT22;20193;49.810;6.418;2022-08-30T07:42:00;23.00;67.30
33901;DHT22;20193;49.810;6.418;2022-08-30T07:44:26;23.20;66.80
33901;DHT22;20193;49.810;6.418;2022-08-30T07:47:01;23.40;66.00
33901;DHT22;20193;49.810;6.418;2022-08-30T07:49:27;23.60;65.20
33901;DHT22;20193;49.810;6.418;2022-08-30T07:51:52;23.90;64.10
33901;DHT22;20193;49.810;6.418;2022-08-30T07:54:18;24.10;63.90
33901;DHT22;20193;49.810;6.418;2022-08-30T07:56:43;24.30;62.80
33901;DHT22;20193;49.810;6.418;2022-08-30T07:59:09;24.60;62.50
33901;DHT22;20193;49.810;6.418;2022-08-30T08:01:35;24.90;62.10
33901;DHT22;20193;49.810;6.418;2022-08-30T08:04:00;25.20;60.20
33901;DHT22;20193;49.810;6.418;2022-08-30T08:06:26;25.50;59.90
33901;DHT22;20193;49.810;6.418;2022-08-30T08:08:52;25.80;59.40
33901;DHT22;20193;49.810;6.418;2022-08-30T08:11:25;26.20;57.50
33901;DHT22;20193;49.810;6.418;2022-08-30T08:13:52;26.50;56.40
33901;DHT22;20193;49.810;6.418;2022-08-30T08:16:18;26.70;55.40
33901;DHT22;20193;49.810;6.418;2022-08-30T08:18:44;27.00;54.80
33901;DHT22;20193;49.810;6.418;2022-08-30T08:21:10;27.30;54.20
33901;DHT22;20193;49.810;6.418;2022-08-30T08:23:36;27.60;53.50
33901;DHT22;20193;49.810;6.418;2022-08-30T08:26:04;27.90;53.00
33901;DHT22;20193;49.810;6.418;2022-08-30T08:28:30;28.20;52.40
33901;DHT22;20193;49.810;6.418;2022-08-30T08:30:57;28.50;51.10
33901;DHT22;20193;49.810;6.418;2022-08-30T08:33:23;28.70;49.40
33901;DHT22;20193;49.810;6.418;2022-08-30T08:35:48;28.90;49.00
33901;DHT22;20193;49.810;6.418;2022-08-30T08:38:14;29.10;48.90
33901;DHT22;20193;49.810;6.418;2022-08-30T08:43:18;29.50;47.90
33901;DHT22;20193;49.810;6.418;2022-08-30T08:48:31;29.80;47.70
33901;DHT22;20193;49.810;6.418;2022-08-30T08:50:57;30.00;47.40
33901;DHT22;20193;49.810;6.418;2022-08-30T08:53:47;30.10;46.90
33901;DHT22;20193;49.810;6.418;2022-08-30T08:56:17;30.40;46.30
33901;DHT22;20193;49.810;6.418;2022-08-30T08:58:50;30.50;45.90
33901;DHT22;20193;49.810;6.418;2022-08-30T09:01:22;30.60;45.30
33901;DHT22;20193;49.810;6.418;2022-08-30T09:03:48;30.70;44.50
33901;DHT22;20193;49.810;6.418;2022-08-30T09:08:53;30.90;44.90
33901;DHT22;20193;49.810;6.418;2022-08-30T09:11:26;31.00;45.00
33901;DHT22;20193;49.810;6.418;2022-08-30T09:13:53;31.00;45.10
33901;DHT22;20193;49.810;6.418;2022-08-30T09:19:37;31.10;43.80
33901;DHT22;20193;49.810;6.418;2022-08-30T09:22:25;31.10;43.80
33901;DHT22;20193;49.810;6.418;2022-08-30T09:27:41;31.00;43.60
33901;DHT22;20193;49.810;6.418;2022-08-30T09:30:20;31.00;43.80
33901;DHT22;20193;49.810;6.418;2022-08-30T09:32:50;30.90;43.70
33901;DHT22;20193;49.810;6.418;2022-08-30T09:35:23;30.90;43.70
33901;DHT22;20193;49.810;6.418;2022-08-30T09:38:04;30.80;43.20
33901;DHT22;20193;49.810;6.418;2022-08-30T09:40:37;30.80;43.10
33901;DHT22;20193;49.810;6.418;2022-08-30T09:43:10;30.80;43.40
33901;DHT22;20193;49.810;6.418;2022-08-30T09:45:47;30.90;43.30
33901;DHT22;20193;49.810;6.418;2022-08-30T09:53:46;31.00;42.70
33901;DHT22;20193;49.810;6.418;2022-08-30T10:01:14;30.90;42.20
33901;DHT22;20193;49.810;6.418;2022-08-30T10:09:42;30.70;43.30
33901;DHT22;20193;49.810;6.418;2022-08-30T10:12:31;30.70;43.40
33901;DHT22;20193;49.810;6.418;2022-08-30T10:15:20;30.60;43.60
33901;DHT22;20193;49.810;6.418;2022-08-30T10:23:20;30.70;44.00
33901;DHT22;20193;49.810;6.418;2022-08-30T10:26:12;30.80;43.60
33901;DHT22;20193;49.810;6.418;2022-08-30T10:28:50;30.80;43.80
33901;DHT22;20193;49.810;6.418;2022-08-30T10:31:41;30.70;43.60
33901;DHT22;20193;49.810;6.418;2022-08-30T10:34:26;30.80;43.80
33901;DHT22;20193;49.810;6.418;2022-08-30T10:37:14;30.70;44.00
33901;DHT22;20193;49.810;6.418;2022-08-30T10:39:45;30.70;43.80
33901;DHT22;20193;49.810;6.418;2022-08-30T10:42:25;30.60;43.90
33901;DHT22;20193;49.810;6.418;2022-08-30T10:45:00;30.60;44.00
33901;DHT22;20193;49.810;6.418;2022-08-30T10:47:59;30.50;44.00
33901;DHT22;20193;49.810;6.418;2022-08-30T10:50:31;30.30;44.10
33901;DHT22;20193;49.810;6.418;2022-08-30T10:55:52;30.10;44.70
33901;DHT22;20193;49.810;6.418;2022-08-30T10:58:19;30.10;44.90
33901;DHT22;20193;49.810;6.418;2022-08-30T11:06:59;29.90;44.70
33901;DHT22;20193;49.810;6.418;2022-08-30T11:15:33;29.90;44.40
33901;DHT22;20193;49.810;6.418;2022-08-30T11:18:19;29.90;44.20
33901;DHT22;20193;49.810;6.418;2022-08-30T11:20:48;29.90;43.80
33901;DHT22;20193;49.810;6.418;2022-08-30T11:31:10;29.90;42.80
33901;DHT22;20193;49.810;6.418;2022-08-30T11:33:54;29.90;42.80
33901;DHT22;20193;49.810;6.418;2022-08-30T11:41:35;30.00;41.70
33901;DHT22;20193;49.810;6.418;2022-08-30T11:46:39;30.00;42.10
33901;DHT22;20193;49.810;6.418;2022-08-30T11:54:59;30.10;42.20
33901;DHT22;20193;49.810;6.418;2022-08-30T12:00:35;30.10;41.70
33901;DHT22;20193;49.810;6.418;2022-08-30T12:03:05;30.20;41.40
33901;DHT22;20193;49.810;6.418;2022-08-30T12:08:11;30.30;40.80
33901;DHT22;20193;49.810;6.418;2022-08-30T12:11:03;30.30;40.60
33901;DHT22;20193;49.810;6.418;2022-08-30T12:16:33;30.50;40.30
33901;DHT22;20193;49.810;6.418;2022-08-30T12:19:15;30.50;40.30
33901;DHT22;20193;49.810;6.418;2022-08-30T12:21:54;30.60;40.70
33901;DHT22;20193;49.810;6.418;2022-08-30T12:24:41;30.70;40.50
33901;DHT22;20193;49.810;6.418;2022-08-30T12:27:31;30.70;40.30
33901;DHT22;20193;49.810;6.418;2022-08-30T12:30:00;30.80;40.30
33901;DHT22;20193;49.810;6.418;2022-08-30T12:32:27;30.90;40.30
33901;DHT22;20193;49.810;6.418;2022-08-30T12:34:54;31.00;40.30
33901;DHT22;20193;49.810;6.418;2022-08-30T12:37:28;31.10;39.40
33901;DHT22;20193;49.810;6.418;2022-08-30T12:42:39;31.20;38.80
33901;DHT22;20193;49.810;6.418;2022-08-30T12:45:16;31.20;38.60
33901;DHT22;20193;49.810;6.418;2022-08-30T12:50:23;31.30;38.70
33901;DHT22;20193;49.810;6.418;2022-08-30T12:53:02;31.30;38.60
33901;DHT22;20193;49.810;6.418;2022-08-30T12:55:33;31.30;38.70
33901;DHT22;20193;49.810;6.418;2022-08-30T12:58:04;31.30;38.80
33901;DHT22;20193;49.810;6.418;2022-08-30T13:00:37;31.40;38.70
33901;DHT22;20193;49.810;6.418;2022-08-30T13:05:50;31.60;38.60
33901;DHT22;20193;49.810;6.418;2022-08-30T13:11:08;31.70;38.80
33901;DHT22;20193;49.810;6.418;2022-08-30T13:13:54;31.90;38.70
33901;DHT22;20193;49.810;6.418;2022-08-30T13:16:24;31.90;38.50
33901;DHT22;20193;49.810;6.418;2022-08-30T13:21:56;32.20;37.70
33901;DHT22;20193;49.810;6.418;2022-08-30T13:24:22;32.30;37.80
33901;DHT22;20193;49.810;6.418;2022-08-30T13:26:48;32.40;37.30
33901;DHT22;20193;49.810;6.418;2022-08-30T13:29:16;32.40;37.50
33901;DHT22;20193;49.810;6.418;2022-08-30T13:31:42;32.40;37.70
33901;DHT22;20193;49.810;6.418;2022-08-30T13:34:08;32.40;37.60
33901;DHT22;20193;49.810;6.418;2022-08-30T13:36:36;32.40;37.30
33901;DHT22;20193;49.810;6.418;2022-08-30T13:39:03;32.40;37.20
33901;DHT22;20193;49.810;6.418;2022-08-30T13:41:29;32.40;37.00
33901;DHT22;20193;49.810;6.418;2022-08-30T13:44:01;32.50;37.10
33901;DHT22;20193;49.810;6.418;2022-08-30T13:46:30;32.40;37.20
33901;DHT22;20193;49.810;6.418;2022-08-30T13:49:05;32.50;36.60
33901;DHT22;20193;49.810;6.418;2022-08-30T13:51:31;32.30;37.40
33901;DHT22;20193;49.810;6.418;2022-08-30T13:53:57;32.40;37.10
33901;DHT22;20193;49.810;6.418;2022-08-30T13:56:28;32.30;37.20
33901;DHT22;20193;49.810;6.418;2022-08-30T13:58:59;32.30;37.30
33901;DHT22;20193;49.810;6.418;2022-08-30T14:01:25;32.30;37.40
33901;DHT22;20193;49.810;6.418;2022-08-30T14:03:50;32.30;37.00
33901;DHT22;20193;49.810;6.418;2022-08-30T14:06:18;32.30;36.80
33901;DHT22;20193;49.810;6.418;2022-08-30T14:08:44;32.30;36.60
33901;DHT22;20193;49.810;6.418;2022-08-30T14:11:11;32.30;36.00
33901;DHT22;20193;49.810;6.418;2022-08-30T14:13:38;32.30;36.40
33901;DHT22;20193;49.810;6.418;2022-08-30T14:16:06;32.40;36.20
33901;DHT22;20193;49.810;6.418;2022-08-30T14:18:32;32.40;36.30
33901;DHT22;20193;49.810;6.418;2022-08-30T14:20:58;32.40;36.20
33901;DHT22;20193;49.810;6.418;2022-08-30T14:23:25;32.50;36.20
33901;DHT22;20193;49.810;6.418;2022-08-30T14:25:51;32.40;36.20
33901;DHT22;20193;49.810;6.418;2022-08-30T14:28:18;32.30;36.20
33901;DHT22;20193;49.810;6.418;2022-08-30T14:30:43;32.30;36.30
33901;DHT22;20193;49.810;6.418;2022-08-30T14:33:09;32.30;36.10
33901;DHT22;20193;49.810;6.418;2022-08-30T14:35:35;32.30;35.90
33901;DHT22;20193;49.810;6.418;2022-08-30T14:38:00;32.20;36.10
33901;DHT22;20193;49.810;6.418;2022-08-30T14:40:26;32.20;36.10
33901;DHT22;20193;49.810;6.418;2022-08-30T14:42:53;32.20;35.90
33901;DHT22;20193;49.810;6.418;2022-08-30T14:45:18;32.20;36.10
33901;DHT22;20193;49.810;6.418;2022-08-30T14:47:44;32.30;36.20
33901;DHT22;20193;49.810;6.418;2022-08-30T14:50:10;32.30;36.20
33901;DHT22;20193;49.810;6.418;2022-08-30T14:52:36;32.30;36.10
33901;DHT22;20193;49.810;6.418;2022-08-30T14:55:04;32.30;35.80
33901;DHT22;20193;49.810;6.418;2022-08-30T14:57:31;32.30;35.90
33901;DHT22;20193;49.810;6.418;2022-08-30T14:59:57;32.30;35.90
33901;DHT22;20193;49.810;6.418;2022-08-30T15:02:22;32.20;36.00
33901;DHT22;20193;49.810;6.418;2022-08-30T15:04:48;32.10;35.30
33901;DHT22;20193;49.810;6.418;2022-08-30T15:07:14;32.10;35.00
33901;DHT22;20193;49.810;6.418;2022-08-30T15:09:41;32.00;35.40
33901;DHT22;20193;49.810;6.418;2022-08-30T15:12:07;31.90;35.60
33901;DHT22;20193;49.810;6.418;2022-08-30T15:14:33;32.00;35.90
33901;DHT22;20193;49.810;6.418;2022-08-30T15:16:59;31.90;36.00
33901;DHT22;20193;49.810;6.418;2022-08-30T15:19:27;31.90;36.20
33901;DHT22;20193;49.810;6.418;2022-08-30T15:21:53;31.80;36.20
33901;DHT22;20193;49.810;6.418;2022-08-30T15:24:21;31.80;35.80
33901;DHT22;20193;49.810;6.418;2022-08-30T15:26:47;31.80;36.00
33901;DHT22;20193;49.810;6.418;2022-08-30T15:29:16;31.80;35.80
33901;DHT22;20193;49.810;6.418;2022-08-30T15:31:43;31.90;35.80
33901;DHT22;20193;49.810;6.418;2022-08-30T15:34:11;31.80;35.80
33901;DHT22;20193;49.810;6.418;2022-08-30T15:36:39;31.80;36.00
33901;DHT22;20193;49.810;6.418;2022-08-30T15:39:06;31.90;35.80
33901;DHT22;20193;49.810;6.418;2022-08-30T15:41:33;31.90;36.00
33901;DHT22;20193;49.810;6.418;2022-08-30T15:44:01;31.90;35.80
33901;DHT22;20193;49.810;6.418;2022-08-30T15:46:32;31.90;36.00
33901;DHT22;20193;49.810;6.418;2022-08-30T15:49:02;31.90;36.00
33901;DHT22;20193;49.810;6.418;2022-08-30T15:51:30;31.90;36.00
33901;DHT22;20193;49.810;6.418;2022-08-30T15:53:56;31.90;35.60
33901;DHT22;20193;49.810;6.418;2022-08-30T15:56:22;31.80;35.40
33901;DHT22;20193;49.810;6.418;2022-08-30T15:58:48;31.90;35.70
33901;DHT22;20193;49.810;6.418;2022-08-30T16:01:17;31.80;35.80
33901;DHT22;20193;49.810;6.418;2022-08-30T16:03:43;31.80;36.10
33901;DHT22;20193;49.810;6.418;2022-08-30T16:06:15;31.70;36.20
33901;DHT22;20193;49.810;6.418;2022-08-30T16:08:42;31.70;36.10
33901;DHT22;20193;49.810;6.418;2022-08-30T16:11:10;31.60;36.20
33901;DHT22;20193;49.810;6.418;2022-08-30T16:13:36;31.50;36.40
33901;DHT22;20193;49.810;6.418;2022-08-30T16:16:03;31.50;36.80
33901;DHT22;20193;49.810;6.418;2022-08-30T16:18:29;31.50;36.70
33901;DHT22;20193;49.810;6.418;2022-08-30T16:21:22;31.30;36.70
33901;DHT22;20193;49.810;6.418;2022-08-30T16:23:49;31.20;37.00
33901;DHT22;20193;49.810;6.418;2022-08-30T16:26:15;31.00;37.30
33901;DHT22;20193;49.810;6.418;2022-08-30T16:28:47;31.00;37.40
33901;DHT22;20193;49.810;6.418;2022-08-30T16:31:14;30.80;37.60
33901;DHT22;20193;49.810;6.418;2022-08-30T16:33:40;30.80;37.70
33901;DHT22;20193;49.810;6.418;2022-08-30T16:36:07;30.70;37.80
33901;DHT22;20193;49.810;6.418;2022-08-30T16:38:35;30.70;38.00
33901;DHT22;20193;49.810;6.418;2022-08-30T16:41:06;30.70;37.90
33901;DHT22;20193;49.810;6.418;2022-08-30T16:43:33;30.60;38.00
33901;DHT22;20193;49.810;6.418;2022-08-30T16:46:00;30.60;38.80
33901;DHT22;20193;49.810;6.418;2022-08-30T16:48:26;30.50;38.30
33901;DHT22;20193;49.810;6.418;2022-08-30T16:50:52;30.40;38.50
33901;DHT22;20193;49.810;6.418;2022-08-30T16:53:18;30.30;38.70
33901;DHT22;20193;49.810;6.418;2022-08-30T16:55:43;30.30;38.70
33901;DHT22;20193;49.810;6.418;2022-08-30T16:58:10;30.20;38.80
33901;DHT22;20193;49.810;6.418;2022-08-30T17:00:36;30.10;39.00
33901;DHT22;20193;49.810;6.418;2022-08-30T17:03:03;30.00;39.20
33901;DHT22;20193;49.810;6.418;2022-08-30T17:05:29;30.00;39.40
33901;DHT22;20193;49.810;6.418;2022-08-30T17:07:54;30.00;39.50
33901;DHT22;20193;49.810;6.418;2022-08-30T17:10:20;29.90;39.60
33901;DHT22;20193;49.810;6.418;2022-08-30T17:12:46;29.90;39.60
33901;DHT22;20193;49.810;6.418;2022-08-30T17:15:12;29.90;39.80